createdAt,value
2018-12-12T00:00:48.888Z,2.65
2018-12-12T00:03:21.947Z,2.53
2018-12-12T00:05:58.458Z,2.45
2018-12-12T00:08:29.545Z,2.36
2018-12-12T00:11:02.735Z,2.24
2018-12-12T00:13:35.467Z,2.12
2018-12-12T00:16:08.535Z,2.05
2018-12-12T00:18:42.291Z,2.04
2018-12-12T00:21:19.858Z,2.10
2018-12-12T00:23:52.630Z,2.18
2018-12-12T00:26:25.574Z,2.28
2018-12-12T00:28:58.695Z,2.36
2018-12-12T00:31:31.833Z,2.48
2018-12-12T00:34:04.559Z,2.58
2018-12-12T00:36:37.850Z,2.68
2018-12-12T00:39:10.420Z,2.76
2018-12-12T00:41:47.491Z,2.85
2018-12-12T00:44:21.080Z,2.94
2018-12-12T00:46:53.730Z,3.03
2018-12-12T00:49:26.457Z,3.11
2018-12-12T00:51:59.716Z,3.14
2018-12-12T00:54:32.494Z,3.22
2018-12-12T00:57:05.733Z,3.26
2018-12-12T00:59:36.618Z,3.24
2018-12-12T01:02:09.246Z,3.27
2018-12-12T01:04:46.515Z,3.31
2018-12-12T01:07:19.943Z,3.29
2018-12-12T01:09:52.833Z,3.29
2018-12-12T01:12:25.686Z,3.25
2018-12-12T01:14:58.579Z,3.21
2018-12-12T01:17:35.898Z,3.17
2018-12-12T01:20:08.735Z,3.14
2018-12-12T01:22:41.892Z,3.14
2018-12-12T01:25:14.563Z,3.13
2018-12-12T01:27:48.583Z,3.12
2018-12-12T01:30:21.752Z,3.05
2018-12-12T01:32:56.820Z,3.00
2018-12-12T01:35:31.938Z,2.93
2018-12-12T01:38:04.663Z,2.90
2018-12-12T01:40:37.495Z,2.87
2018-12-12T01:43:14.448Z,2.84
2018-12-12T01:45:47.259Z,2.81
2018-12-12T01:48:18.225Z,2.79
2018-12-12T01:50:51.319Z,2.83
2018-12-12T01:53:24.467Z,2.87
2018-12-12T01:56:00.974Z,2.92
2018-12-12T01:58:31.775Z,2.99
2018-12-12T02:01:04.912Z,3.04
2018-12-12T02:03:38.548Z,3.12
2018-12-12T02:06:11.700Z,3.18
2018-12-12T02:08:42.651Z,3.17
2018-12-12T02:11:15.514Z,3.18
2018-12-12T02:13:48.478Z,3.21
2018-12-12T02:16:22.479Z,3.23
2018-12-12T02:18:55.099Z,3.30
2018-12-12T02:21:27.920Z,3.34
2018-12-12T02:24:00.815Z,3.32
2018-12-12T02:26:34.186Z,3.27
2018-12-12T02:29:06.459Z,3.31
2018-12-12T02:31:37.434Z,3.31
2018-12-12T02:34:13.737Z,3.30
2018-12-12T02:36:46.759Z,3.31
2018-12-12T02:59:27.060Z,3.38
2018-12-12T03:01:59.967Z,3.36
2018-12-12T03:04:36.674Z,3.36
2018-12-12T03:07:09.562Z,3.37
2018-12-12T03:09:42.512Z,3.36
2018-12-12T03:12:15.606Z,3.36
2018-12-12T03:14:52.525Z,3.35
2018-12-12T03:17:23.330Z,3.35
2018-12-12T03:19:56.313Z,3.35
2018-12-12T03:22:29.098Z,3.32
2018-12-12T03:25:02.187Z,3.30
2018-12-12T03:27:35.103Z,3.28
2018-12-12T03:30:08.269Z,3.26
2018-12-12T03:32:39.045Z,3.23
2018-12-12T03:35:11.834Z,3.21
2018-12-12T03:37:42.892Z,3.24
2018-12-12T03:40:15.130Z,3.27
2018-12-12T03:42:48.283Z,3.27
2018-12-12T03:45:21.234Z,3.29
2018-12-12T03:47:54.233Z,3.32
2018-12-12T03:50:27.390Z,3.37
2018-12-12T03:53:00.367Z,3.39
2018-12-12T03:55:33.523Z,3.40
2018-12-12T03:58:06.918Z,3.43
2018-12-12T04:20:46.446Z,3.44
2018-12-12T04:23:19.573Z,3.34
2018-12-12T04:25:56.318Z,3.17
2018-12-12T04:28:29.210Z,2.95
2018-12-12T04:30:59.933Z,2.74
2018-12-12T04:33:33.233Z,2.50
2018-12-12T04:36:06.091Z,2.24
2018-12-12T04:38:43.064Z,2.04
2018-12-12T04:41:16.186Z,1.87
2018-12-12T04:43:49.144Z,1.76
2018-12-12T04:46:25.832Z,1.72
2018-12-12T04:48:59.202Z,1.73
2018-12-12T04:51:31.752Z,1.76
2018-12-12T04:54:05.035Z,1.80
2018-12-12T04:56:41.979Z,1.82
2018-12-12T04:59:14.622Z,1.83
2018-12-12T05:01:47.291Z,1.84
2018-12-12T05:04:24.278Z,1.82
2018-12-12T05:06:57.399Z,1.77
2018-12-12T05:09:30.340Z,1.74
2018-12-12T05:12:03.380Z,1.79
2018-12-12T05:14:40.563Z,1.77
2018-12-12T05:17:12.938Z,1.74
2018-12-12T05:19:45.857Z,1.78
2018-12-12T05:22:18.763Z,1.82
2018-12-12T05:24:55.467Z,1.92
2018-12-12T05:27:28.435Z,2.03
2018-12-12T05:30:04.867Z,2.14
2018-12-12T05:32:37.695Z,2.22
2018-12-12T05:35:14.897Z,2.25
2018-12-12T05:37:51.825Z,2.28
2018-12-12T05:40:22.737Z,2.26
2018-12-12T05:42:55.131Z,2.20
2018-12-12T05:45:28.344Z,2.15
2018-12-12T05:48:01.530Z,2.15
2018-12-12T05:50:34.595Z,2.15
2018-12-12T05:53:05.815Z,2.18
2018-12-12T05:55:38.699Z,2.22
2018-12-12T05:58:09.670Z,2.30
2018-12-12T06:00:42.671Z,2.35
2018-12-12T06:03:15.676Z,2.42
2018-12-12T06:05:48.227Z,2.49
2018-12-12T06:08:21.405Z,2.56
2018-12-12T06:10:52.218Z,2.62
2018-12-12T06:13:25.424Z,2.69
2018-12-12T06:15:58.396Z,2.73
2018-12-12T06:18:30.732Z,2.79
2018-12-12T06:21:03.853Z,2.84
2018-12-12T06:23:36.651Z,2.87
2018-12-12T06:33:38.167Z,2.95
2018-12-12T06:38:42.224Z,2.99
2018-12-12T06:41:11.371Z,3.00
2018-12-12T06:43:44.062Z,3.01
2018-12-12T06:46:30.139Z,3.02
2018-12-12T06:49:02.876Z,3.03
2018-12-12T06:51:35.879Z,3.06
2018-12-12T06:54:06.979Z,3.08
2018-12-12T06:56:44.002Z,3.10
2018-12-12T06:59:17.196Z,3.13
2018-12-12T07:01:55.191Z,3.16
2018-12-12T07:04:24.251Z,3.18
2018-12-12T07:06:57.982Z,3.19
2018-12-12T07:09:40.421Z,3.21
2018-12-12T07:12:09.562Z,3.23
2018-12-12T07:14:46.491Z,3.23
2018-12-12T07:17:24.066Z,3.24
2018-12-12T07:19:53.344Z,3.22
2018-12-12T07:22:22.559Z,3.21
2018-12-12T07:24:51.692Z,3.20
2018-12-12T07:27:26.064Z,3.21
2018-12-12T07:29:55.236Z,3.23
2018-12-12T07:33:07.445Z,3.26
2018-12-12T07:35:36.659Z,3.23
2018-12-12T07:38:05.978Z,3.23
2018-12-12T07:43:07.436Z,3.30
2018-12-12T07:45:36.552Z,3.33
2018-12-12T07:48:20.327Z,3.36
2018-12-12T07:50:52.878Z,3.38
2018-12-12T07:53:21.894Z,3.41
2018-12-12T07:55:50.907Z,3.45
2018-12-12T07:58:20.073Z,3.48
2018-12-12T08:00:57.663Z,3.51
2018-12-12T08:03:26.670Z,3.54
2018-12-12T08:06:04.406Z,3.57
2018-12-12T08:08:33.436Z,3.59
2018-12-12T08:11:02.710Z,3.61
2018-12-12T08:13:31.787Z,3.65
2018-12-12T08:16:04.248Z,3.73
2018-12-12T08:18:33.363Z,3.76
2018-12-12T08:21:02.585Z,3.78
2018-12-12T08:23:31.947Z,3.79
2018-12-12T08:26:01.079Z,3.82
2018-12-12T08:28:30.162Z,3.83
2018-12-12T08:30:59.258Z,3.91
2018-12-12T08:33:28.432Z,3.95
2018-12-12T08:35:57.453Z,4.02
2018-12-12T08:38:26.598Z,4.05
2018-12-12T08:40:55.731Z,4.07
2018-12-12T08:43:24.852Z,4.10
2018-12-12T08:45:53.910Z,4.14
2018-12-12T08:48:23.068Z,4.15
2018-12-12T08:50:52.154Z,4.18
2018-12-12T08:53:21.270Z,4.24
2018-12-12T08:55:50.433Z,4.35
2018-12-12T08:58:19.572Z,4.46
2018-12-12T09:00:48.787Z,4.56
2018-12-12T09:03:17.966Z,4.65
2018-12-12T09:05:47.088Z,4.72
2018-12-12T09:08:16.162Z,4.77
2018-12-12T09:10:45.284Z,4.79
2018-12-12T09:13:15.430Z,4.79
2018-12-12T09:15:44.719Z,4.88
2018-12-12T09:18:13.771Z,4.91
2018-12-12T09:20:42.935Z,4.96
2018-12-12T09:23:12.063Z,5.04
2018-12-12T09:25:41.635Z,5.09
2018-12-12T09:28:10.853Z,5.04
2018-12-12T09:30:40.035Z,4.97
2018-12-12T09:33:09.168Z,4.98
2018-12-12T09:35:38.395Z,5.02
2018-12-12T09:38:07.634Z,5.11
2018-12-12T09:40:37.069Z,5.19
2018-12-12T09:43:06.203Z,5.24
2018-12-12T09:45:35.358Z,5.30
2018-12-12T09:48:04.567Z,5.30
2018-12-12T09:50:33.674Z,5.34
2018-12-12T09:53:02.863Z,5.38
2018-12-12T09:55:32.075Z,5.37
2018-12-12T09:58:01.878Z,5.38
2018-12-12T10:00:30.965Z,5.40
2018-12-12T10:03:00.101Z,5.46
2018-12-12T10:05:29.183Z,5.42
2018-12-12T10:07:58.322Z,5.39
2018-12-12T10:10:27.429Z,5.47
2018-12-12T10:12:56.502Z,5.56
2018-12-12T10:15:25.763Z,5.62
2018-12-12T10:17:54.911Z,5.64
2018-12-12T10:20:24.143Z,5.69
2018-12-12T10:22:53.214Z,5.70
2018-12-12T10:25:22.263Z,5.77
2018-12-12T10:27:51.280Z,5.85
2018-12-12T10:30:20.373Z,5.98
2018-12-12T10:32:49.399Z,5.99
2018-12-12T10:35:18.519Z,5.99
2018-12-12T10:37:47.576Z,6.02
2018-12-12T10:40:16.662Z,6.08
2018-12-12T10:42:45.656Z,6.12
2018-12-12T10:45:14.735Z,6.20
2018-12-12T10:47:43.763Z,6.23
2018-12-12T10:50:12.883Z,6.02
2018-12-12T10:52:45.145Z,5.94
2018-12-12T10:55:14.238Z,5.95
2018-12-12T10:57:43.297Z,6.04
2018-12-12T11:00:13.054Z,5.97
2018-12-12T11:02:47.575Z,5.93
2018-12-12T11:05:17.003Z,5.77
2018-12-12T11:07:46.096Z,5.56
2018-12-12T11:10:15.235Z,5.44
2018-12-12T11:12:51.844Z,5.41
2018-12-12T11:15:20.963Z,5.31
2018-12-12T11:17:49.983Z,5.29
2018-12-12T11:20:19.035Z,5.30
2018-12-12T11:22:48.135Z,5.32
2018-12-12T11:25:17.175Z,5.33
2018-12-12T11:27:46.325Z,5.40
2018-12-12T11:30:15.387Z,5.54
2018-12-12T11:32:44.550Z,5.65
2018-12-12T11:35:13.835Z,5.69
2018-12-12T11:37:42.940Z,5.75
2018-12-12T11:40:12.014Z,5.79
2018-12-12T11:42:42.167Z,5.79
2018-12-12T11:45:11.235Z,5.74
2018-12-12T11:47:40.375Z,5.76
2018-12-12T11:50:09.480Z,5.66
2018-12-12T11:52:38.615Z,5.56
2018-12-12T11:55:07.675Z,5.58
2018-12-12T11:57:36.915Z,5.75
2018-12-12T12:00:06.375Z,5.97
2018-12-12T12:02:35.805Z,6.17
2018-12-12T12:05:05.153Z,6.29
2018-12-12T12:07:37.370Z,6.49
2018-12-12T12:10:09.024Z,6.78
2018-12-12T12:12:45.863Z,7.10
2018-12-12T12:15:14.963Z,7.34
2018-12-12T12:17:44.030Z,7.46
2018-12-12T12:20:13.125Z,7.63
2018-12-12T12:22:42.331Z,7.79
2018-12-12T12:25:11.384Z,7.79
2018-12-12T12:27:40.483Z,7.71
2018-12-12T12:30:09.872Z,7.59
2018-12-12T12:33:22.597Z,7.28
2018-12-12T12:35:51.695Z,7.07
2018-12-12T12:38:20.805Z,7.06
2018-12-12T12:40:49.837Z,7.00
2018-12-12T12:43:19.035Z,6.93
2018-12-12T12:45:48.226Z,6.74
2018-12-12T12:48:17.779Z,6.56
2018-12-12T12:50:46.795Z,6.45
2018-12-12T12:53:16.019Z,6.35
2018-12-12T12:55:58.498Z,6.26
2018-12-12T12:58:40.195Z,6.29
2018-12-12T13:01:16.907Z,6.16
2018-12-12T13:03:49.964Z,5.96
2018-12-12T13:06:19.177Z,5.63
2018-12-12T13:08:51.936Z,5.33
2018-12-12T13:11:20.976Z,5.08
2018-12-12T13:13:50.292Z,4.96
2018-12-12T13:16:19.303Z,4.92
2018-12-12T13:18:48.399Z,4.91
2018-12-12T13:21:17.535Z,4.95
2018-12-12T13:23:50.095Z,4.94
2018-12-12T13:26:22.676Z,4.95
2018-12-12T13:28:55.595Z,4.96
2018-12-12T13:31:32.258Z,4.98
2018-12-12T13:34:01.664Z,5.02
2018-12-12T13:36:30.720Z,5.10
2018-12-12T13:39:24.002Z,5.14
2018-12-12T13:41:53.179Z,5.05
2018-12-12T13:44:22.227Z,4.96
2018-12-12T13:46:51.227Z,4.83
2018-12-12T13:49:20.403Z,4.84
2018-12-12T13:51:58.819Z,4.78
2018-12-12T13:54:39.067Z,4.60
2018-12-12T13:57:08.106Z,4.41
2018-12-12T13:59:48.303Z,4.39
2018-12-12T14:02:17.331Z,4.80
2018-12-12T14:04:53.699Z,6.30
2018-12-12T14:07:22.673Z,8.20
2018-12-12T14:09:51.654Z,9.63
2018-12-12T14:12:20.588Z,10.73
2018-12-12T14:14:50.741Z,11.52
2018-12-12T14:17:19.899Z,11.97
2018-12-12T14:19:48.978Z,12.25
2018-12-12T14:22:18.019Z,12.32
2018-12-12T14:24:47.179Z,11.80
2018-12-12T14:27:16.187Z,11.25
2018-12-12T14:29:45.201Z,10.98
2018-12-12T14:32:14.751Z,10.61
2018-12-12T14:34:43.803Z,9.87
2018-12-12T14:37:12.923Z,8.96
2018-12-12T14:39:41.891Z,8.09
2018-12-12T14:42:10.899Z,7.28
2018-12-12T14:44:39.899Z,6.62
2018-12-12T14:47:09.203Z,6.10
2018-12-12T14:49:38.240Z,5.68
2018-12-12T14:52:07.339Z,5.26
2018-12-12T14:54:36.398Z,4.90
2018-12-12T14:57:05.507Z,4.63
2018-12-12T14:59:34.549Z,4.45
2018-12-12T15:02:03.647Z,4.37
2018-12-12T15:04:35.864Z,4.32
2018-12-12T15:07:04.256Z,4.31
2018-12-12T15:09:53.883Z,4.26
2018-12-12T15:12:26.789Z,4.13
2018-12-12T15:15:03.387Z,3.94
2018-12-12T15:17:32.509Z,3.74
2018-12-12T15:20:01.567Z,3.54
2018-12-12T15:22:30.780Z,3.32
2018-12-12T15:25:10.051Z,3.03
2018-12-12T15:27:46.732Z,2.70
2018-12-12T15:30:20.615Z,2.36
2018-12-12T15:32:53.651Z,2.02
2018-12-12T15:35:35.774Z,1.68
2018-12-12T15:38:08.075Z,1.37
2018-12-12T15:40:37.175Z,1.11
2018-12-12T15:43:06.216Z,0.90
2018-12-12T15:45:42.735Z,0.74
2018-12-12T15:48:52.161Z,0.68
2018-12-12T15:51:49.660Z,0.74
2018-12-12T15:54:46.471Z,0.97
2018-12-12T15:57:19.615Z,1.30
2018-12-12T15:59:48.719Z,1.62
2018-12-12T16:02:21.163Z,1.88
2018-12-12T16:04:51.307Z,2.18
2018-12-12T16:07:21.379Z,2.44
2018-12-12T16:10:03.803Z,2.73
2018-12-12T16:12:33.232Z,2.96
2018-12-12T16:15:02.258Z,3.11
2018-12-12T16:17:31.434Z,3.24
2018-12-12T16:20:00.778Z,3.33
2018-12-12T16:22:31.390Z,3.44
2018-12-12T16:25:00.570Z,3.49
2018-12-12T16:27:29.733Z,3.55
2018-12-12T16:29:58.766Z,3.59
2018-12-12T16:32:27.871Z,3.60
2018-12-12T16:34:57.011Z,3.63
2018-12-12T16:37:26.051Z,3.66
2018-12-12T16:39:55.212Z,3.70
2018-12-12T16:42:24.317Z,3.72
2018-12-12T16:44:53.656Z,3.76
2018-12-12T16:47:23.202Z,3.79
2018-12-12T16:49:52.654Z,3.78
2018-12-12T16:52:21.927Z,3.80
2018-12-12T16:54:55.007Z,3.79
2018-12-12T16:57:34.639Z,3.77
2018-12-12T17:00:04.932Z,3.74
2018-12-12T17:02:34.293Z,3.73
2018-12-12T17:05:03.433Z,3.73
2018-12-12T17:07:32.675Z,3.71
2018-12-12T17:10:01.902Z,3.68
2018-12-12T17:12:31.108Z,3.66
2018-12-12T17:15:03.879Z,3.64
2018-12-12T17:17:33.188Z,3.62
2018-12-12T17:20:02.735Z,3.59
2018-12-12T17:22:32.019Z,3.53
2018-12-12T17:25:01.206Z,3.43
2018-12-12T17:27:38.430Z,3.24
2018-12-12T17:30:09.175Z,2.94
2018-12-12T17:32:38.546Z,2.58
2018-12-12T17:35:15.441Z,2.22
2018-12-12T17:38:05.351Z,1.88
2018-12-12T17:40:42.826Z,1.52
2018-12-12T17:43:12.323Z,1.29
2018-12-12T17:45:58.243Z,1.12
2018-12-12T17:48:34.905Z,0.93
2018-12-12T17:51:07.566Z,0.73
2018-12-12T17:53:45.566Z,0.52
2018-12-12T17:56:22.553Z,0.37
2018-12-12T17:58:52.079Z,0.19
2018-12-12T18:01:25.069Z,0.08
2018-12-12T18:04:02.067Z,-0.05
2018-12-12T18:06:48.071Z,-0.10
2018-12-12T18:09:21.490Z,-0.15
2018-12-12T18:11:58.540Z,-0.17
2018-12-12T18:14:36.130Z,-0.23
2018-12-12T18:17:09.083Z,-0.29
2018-12-12T18:19:42.369Z,-0.34
2018-12-12T18:22:19.498Z,-0.37
2018-12-12T18:24:52.910Z,-0.37
2018-12-12T18:27:40.032Z,-0.43
2018-12-12T18:30:11.533Z,-0.50
2018-12-12T18:32:48.519Z,-0.58
2018-12-12T18:35:29.731Z,-0.69
2018-12-12T18:38:07.011Z,-0.76
2018-12-12T18:40:44.586Z,-0.69
2018-12-12T18:43:22.000Z,-0.44
2018-12-12T18:45:55.528Z,-0.22
2018-12-12T18:48:26.559Z,-0.15
2018-12-12T18:51:03.459Z,-0.17
2018-12-12T18:53:36.407Z,-0.20
2018-12-12T18:56:09.073Z,-0.27
2018-12-12T18:58:46.071Z,-0.37
2018-12-12T19:01:20.538Z,-0.46
2018-12-12T19:04:12.174Z,-0.54
2018-12-12T19:06:44.934Z,-0.58
2018-12-12T19:09:22.658Z,-0.59
2018-12-12T19:11:56.098Z,-0.56
2018-12-12T19:14:28.833Z,-0.62
2018-12-12T19:17:02.448Z,-0.70
2018-12-12T19:19:35.343Z,-0.77
2018-12-12T19:22:12.102Z,-0.84
2018-12-12T19:24:44.993Z,-0.84
2018-12-12T19:27:18.352Z,-0.89
2018-12-12T19:29:55.434Z,-0.93
2018-12-12T19:32:33.331Z,-0.95
2018-12-12T19:35:07.475Z,-1.00
2018-12-12T19:37:40.648Z,-1.08
2018-12-12T19:40:14.093Z,-1.14
2018-12-12T19:42:47.054Z,-1.15
2018-12-12T19:45:23.891Z,-1.19
2018-12-12T19:47:56.631Z,-1.19
2018-12-12T19:50:29.570Z,-1.21
2018-12-12T19:53:06.593Z,-1.25
2018-12-12T19:55:39.466Z,-1.31
2018-12-12T19:58:16.212Z,-1.37
2018-12-12T20:00:49.099Z,-1.39
2018-12-12T20:03:27.617Z,-1.41
2018-12-12T20:06:14.366Z,-1.42
2018-12-12T20:08:45.918Z,-1.46
2018-12-12T20:11:15.470Z,-1.48
2018-12-12T20:13:48.399Z,-1.50
2018-12-12T20:16:48.223Z,-1.54
2018-12-12T20:19:19.831Z,-1.50
2018-12-12T20:22:17.080Z,-1.49
2018-12-12T20:25:27.574Z,-1.49
2018-12-12T20:28:46.416Z,-1.53
2018-12-12T20:34:42.589Z,-1.36
2018-12-12T20:37:12.165Z,-1.34
2018-12-12T20:39:56.639Z,-1.41
2018-12-12T20:42:26.284Z,-1.49
2018-12-12T20:49:01.912Z,-1.63
2018-12-12T20:51:36.412Z,-1.64
2018-12-12T20:54:13.390Z,-1.65
2018-12-12T20:56:46.243Z,-1.65
2018-12-12T20:59:16.503Z,-1.61
2018-12-12T21:01:53.829Z,-1.60
2018-12-12T21:04:26.649Z,-1.62
2018-12-12T21:06:59.635Z,-1.62
2018-12-12T21:09:41.656Z,-1.61
2018-12-12T21:12:19.160Z,-1.60
2018-12-12T21:14:52.016Z,-1.28
2018-12-12T21:17:22.035Z,-1.02
2018-12-12T21:19:59.624Z,-0.97
2018-12-12T21:22:32.407Z,-1.06
2018-12-12T21:25:09.110Z,-1.21
2018-12-12T21:27:46.939Z,-1.26
2018-12-12T21:30:23.743Z,-1.06
2018-12-12T21:32:57.315Z,-0.88
2018-12-12T21:35:35.684Z,-0.70
2018-12-12T21:38:12.933Z,-0.53
2018-12-12T21:40:42.411Z,-0.32
2018-12-12T21:43:19.455Z,-0.12
2018-12-12T21:45:52.538Z,0.07
2018-12-12T21:48:25.212Z,0.20
2018-12-12T21:51:02.138Z,0.49
2018-12-12T21:53:38.975Z,0.79
2018-12-12T21:56:12.039Z,0.99
2018-12-12T21:58:53.855Z,1.10
2018-12-12T22:01:30.882Z,1.08
2018-12-12T22:04:07.667Z,1.05
2018-12-12T22:06:40.486Z,1.07
2018-12-12T22:12:41.507Z,1.36
2018-12-12T22:15:14.145Z,1.46
2018-12-12T22:17:45.118Z,1.50
2018-12-12T22:20:14.442Z,1.54
2018-12-12T22:22:58.486Z,1.55
2018-12-12T22:26:06.164Z,1.61
2018-12-12T22:28:35.325Z,1.67
2018-12-12T22:31:04.339Z,1.71
2018-12-12T22:33:33.495Z,1.70
2018-12-12T22:36:02.575Z,1.71
2018-12-12T22:38:40.804Z,1.74
2018-12-12T22:41:10.191Z,1.78
2018-12-12T22:43:39.633Z,1.79
2018-12-12T22:46:08.591Z,1.80
2018-12-12T22:48:45.497Z,1.78
2018-12-12T22:51:23.347Z,1.77
2018-12-12T22:56:21.722Z,1.73
2018-12-12T22:58:50.733Z,1.70
2018-12-12T23:01:27.271Z,1.69
2018-12-12T23:03:58.087Z,1.72
2018-12-12T23:06:29.003Z,1.75
2018-12-12T23:08:58.060Z,1.79
2018-12-12T23:11:27.015Z,1.79
2018-12-12T23:13:56.302Z,1.78
2018-12-12T23:16:28.702Z,1.74
2018-12-12T23:19:01.466Z,1.67
2018-12-12T23:22:11.586Z,1.61
2018-12-12T23:24:43.777Z,1.41
2018-12-12T23:27:13.347Z,1.21
2018-12-12T23:30:25.583Z,1.07
2018-12-12T23:33:01.951Z,0.86
2018-12-12T23:35:30.929Z,0.71
2018-12-12T23:37:59.954Z,0.55
2018-12-12T23:40:30.722Z,0.51
2018-12-12T23:43:03.874Z,0.59
2018-12-12T23:45:34.515Z,0.71
2018-12-12T23:48:03.535Z,0.85
2018-12-12T23:50:32.663Z,1.02
2018-12-12T23:53:05.643Z,1.12
2018-12-12T23:55:38.410Z,1.21
2018-12-12T23:58:10.993Z,1.31
